Terminal Aerodrome Forecast
Issued by NWS

Home | Current Version | Previous Version | Text Only | Print | Product List | Glossary On
Versions: 1 2 3 4 5 6 7 8 9 10 11 12 13 14 15 16 17 18 19 20 21 22 23 24 25 26 27 28 29 30 31 32
239
FTUS43 KFGF 110530
TAFTVF
TAF
KTVF 110530Z 1106/1206 07007KT P6SM OVC100
     FM110900 08008KT P6SM OVC045
      TEMPO 1112/1115 2SM -SN OVC025
     FM111500 08007KT 2SM -SN OVC025
     FM111900 07007KT P6SM OVC015=

USA.gov is the U.S. government's official web portal to all federal, state and local government web resources and services.